createdAt,value
2018-11-12T00:02:13.227Z,78.87
2018-11-12T00:04:40.798Z,78.77
2018-11-12T00:07:08.322Z,78.12
2018-11-12T00:09:35.787Z,77.70
2018-11-12T00:12:03.446Z,77.42
2018-11-12T00:14:30.918Z,76.93
2018-11-12T00:16:58.449Z,76.85
2018-11-12T00:19:26.008Z,76.54
2018-11-12T00:21:53.610Z,76.27
2018-11-12T00:24:21.049Z,76.10
2018-11-12T00:26:48.658Z,76.02
2018-11-12T00:29:16.326Z,75.75
2018-11-12T00:31:44.558Z,75.63
2018-11-12T00:34:12.168Z,75.79
2018-11-12T00:36:39.804Z,75.35
2018-11-12T00:39:07.977Z,75.64
2018-11-12T00:41:35.497Z,75.32
2018-11-12T00:44:03.178Z,74.87
2018-11-12T00:46:30.802Z,74.77
2018-11-12T00:48:58.670Z,74.79
2018-11-12T00:51:26.337Z,74.49
2018-11-12T00:53:53.830Z,74.55
2018-11-12T00:56:21.513Z,74.19
2018-11-12T00:58:49.002Z,74.59
2018-11-12T01:01:16.644Z,74.36
2018-11-12T01:03:44.155Z,74.16
2018-11-12T01:06:11.866Z,74.47
2018-11-12T01:08:39.508Z,74.60
2018-11-12T01:11:07.007Z,74.41
2018-11-12T01:13:34.520Z,74.67
2018-11-12T01:16:02.024Z,74.75
2018-11-12T01:18:29.647Z,75.38
2018-11-12T01:20:57.296Z,76.19
2018-11-12T01:23:25.932Z,76.33
2018-11-12T01:25:54.062Z,76.58
2018-11-12T01:28:21.595Z,76.91
2018-11-12T01:30:49.279Z,76.91
2018-11-12T01:33:16.777Z,77.21
2018-11-12T01:35:44.299Z,78.37
2018-11-12T01:38:11.807Z,78.68
2018-11-12T01:40:39.342Z,79.54
2018-11-12T01:43:06.960Z,80.06
2018-11-12T01:45:34.454Z,80.00
2018-11-12T01:48:01.934Z,79.95
2018-11-12T01:50:29.583Z,80.18
2018-11-12T01:52:57.249Z,79.96
2018-11-12T01:55:24.743Z,80.68
2018-11-12T01:57:52.238Z,80.95
2018-11-12T02:00:21.120Z,81.43
2018-11-12T02:02:49.834Z,81.63
2018-11-12T02:05:17.994Z,81.60
2018-11-12T02:07:45.530Z,82.40
2018-11-12T02:10:14.746Z,82.40
2018-11-12T02:12:42.515Z,82.73
2018-11-12T02:15:11.803Z,82.32
2018-11-12T02:17:39.338Z,81.46
2018-11-12T02:20:08.287Z,80.68
2018-11-12T02:22:35.978Z,79.50
2018-11-12T02:25:03.647Z,77.71
2018-11-12T02:27:31.178Z,76.73
2018-11-12T02:29:58.835Z,76.05
2018-11-12T02:32:26.320Z,75.40
2018-11-12T02:34:54.146Z,75.35
2018-11-12T02:37:21.628Z,75.06
2018-11-12T02:39:49.119Z,74.31
2018-11-12T02:42:16.789Z,74.09
2018-11-12T02:44:44.287Z,73.80
2018-11-12T02:47:11.848Z,73.45
2018-11-12T02:49:39.503Z,72.88
2018-11-12T02:52:07.158Z,72.70
2018-11-12T02:54:34.931Z,73.34
2018-11-12T02:57:02.459Z,74.15
2018-11-12T02:59:30.489Z,74.65
2018-11-12T03:01:57.953Z,75.18
2018-11-12T03:04:25.611Z,75.37
2018-11-12T03:06:53.231Z,76.54
2018-11-12T03:09:20.854Z,76.37
2018-11-12T03:11:48.365Z,76.89
2018-11-12T03:14:15.872Z,77.23
2018-11-12T03:16:43.397Z,78.83
2018-11-12T03:19:11.057Z,78.86
2018-11-12T03:21:38.643Z,78.75
2018-11-12T03:24:06.185Z,78.69
2018-11-12T03:26:33.811Z,79.44
2018-11-12T03:29:01.359Z,79.67
2018-11-12T03:31:28.972Z,79.65
2018-11-12T03:33:56.480Z,79.14
2018-11-12T03:36:23.970Z,80.17
2018-11-12T03:38:51.464Z,79.98
2018-11-12T03:41:19.374Z,79.93
2018-11-12T03:43:47.011Z,81.63
2018-11-12T03:46:14.586Z,82.53
2018-11-12T03:48:42.226Z,81.41
2018-11-12T03:51:09.841Z,81.64
2018-11-12T03:53:37.351Z,81.52
2018-11-12T03:56:05.410Z,82.13
2018-11-12T03:58:33.021Z,82.12
2018-11-12T04:01:01.657Z,81.56
2018-11-12T04:03:29.320Z,81.32
2018-11-12T04:05:56.823Z,81.26
2018-11-12T04:08:24.688Z,80.92
2018-11-12T04:10:52.252Z,80.27
2018-11-12T04:13:19.947Z,80.11
2018-11-12T04:15:47.504Z,79.27
2018-11-12T04:18:15.155Z,78.99
2018-11-12T04:20:42.810Z,78.01
2018-11-12T04:23:11.562Z,76.98
2018-11-12T04:25:40.139Z,75.88
2018-11-12T04:28:07.648Z,74.45
2018-11-12T04:30:35.598Z,73.31
2018-11-12T04:33:03.155Z,71.59
2018-11-12T04:35:30.735Z,70.56
2018-11-12T04:37:58.647Z,69.99
2018-11-12T04:40:26.158Z,68.45
2018-11-12T04:42:53.673Z,68.13
2018-11-12T04:45:22.359Z,68.27
2018-11-12T04:47:50.544Z,69.08
2018-11-12T04:50:19.828Z,68.55
2018-11-12T04:52:47.619Z,67.94
2018-11-12T04:55:16.733Z,67.97
2018-11-12T04:57:45.967Z,68.28
2018-11-12T05:00:15.180Z,68.34
2018-11-12T05:02:42.713Z,69.96
2018-11-12T05:05:12.979Z,70.21
2018-11-12T05:07:40.695Z,71.34
2018-11-12T05:10:10.991Z,71.29
2018-11-12T05:12:39.008Z,71.11
2018-11-12T05:15:07.319Z,70.98
2018-11-12T05:17:35.027Z,71.23
2018-11-12T05:20:02.583Z,71.75
2018-11-12T05:22:30.083Z,70.71
2018-11-12T05:24:57.706Z,67.98
2018-11-12T05:27:25.382Z,66.64
2018-11-12T05:29:53.056Z,65.36
2018-11-12T05:32:20.567Z,64.07
2018-11-12T05:34:48.263Z,63.58
2018-11-12T05:37:15.747Z,64.05
2018-11-12T05:39:43.399Z,63.64
2018-11-12T05:42:10.897Z,62.71
2018-11-12T05:44:38.411Z,62.14
2018-11-12T05:47:06.109Z,61.08
2018-11-12T05:49:33.778Z,60.89
2018-11-12T05:52:02.958Z,60.22
2018-11-12T05:54:30.592Z,60.08
2018-11-12T05:56:58.103Z,59.24
2018-11-12T05:59:25.588Z,59.10
2018-11-12T06:01:53.099Z,57.98
2018-11-12T06:04:20.613Z,58.20
2018-11-12T06:06:48.408Z,58.94
2018-11-12T06:09:15.890Z,61.52
2018-11-12T06:11:43.511Z,62.82
2018-11-12T06:14:11.205Z,63.47
2018-11-12T06:16:38.755Z,63.80
2018-11-12T06:19:06.422Z,64.36
2018-11-12T06:21:34.114Z,65.39
2018-11-12T06:24:01.997Z,65.56
2018-11-12T06:26:29.494Z,64.78
2018-11-12T06:28:57.010Z,65.65
2018-11-12T06:31:24.778Z,66.54
2018-11-12T06:33:52.214Z,65.25
2018-11-12T06:36:19.694Z,65.06
2018-11-12T06:38:47.271Z,65.77
2018-11-12T06:41:14.770Z,63.66
2018-11-12T06:43:42.440Z,63.63
2018-11-12T06:46:10.623Z,63.70
2018-11-12T06:48:38.111Z,63.79
2018-11-12T06:51:05.664Z,63.68
2018-11-12T06:53:33.368Z,64.25
2018-11-12T06:56:01.226Z,64.74
2018-11-12T06:58:28.728Z,65.06
2018-11-12T07:00:56.303Z,64.94
2018-11-12T07:03:23.876Z,63.82
2018-11-12T07:05:51.958Z,63.91
2018-11-12T07:08:19.617Z,64.96
2018-11-12T07:10:47.104Z,64.94
2018-11-12T07:13:14.783Z,62.27
2018-11-12T07:15:45.423Z,61.40
2018-11-12T07:18:14.231Z,60.57
2018-11-12T07:20:41.741Z,61.97
2018-11-12T07:23:09.253Z,61.05
2018-11-12T07:25:36.747Z,60.60
2018-11-12T07:28:04.430Z,60.07
2018-11-12T07:30:32.030Z,58.34
2018-11-12T07:32:59.903Z,55.43
2018-11-12T07:35:27.551Z,54.62
2018-11-12T07:37:55.851Z,49.48
2018-11-12T07:40:23.844Z,45.89
2018-11-12T07:42:51.517Z,49.35
2018-11-12T07:45:20.162Z,50.61
2018-11-12T07:47:48.566Z,52.08
2018-11-12T07:50:17.655Z,52.44
2018-11-12T07:52:45.250Z,50.84
2018-11-12T07:55:14.181Z,52.08
2018-11-12T07:57:42.086Z,52.48
2018-11-12T08:00:11.455Z,46.63
2018-11-12T08:02:39.912Z,49.66
2018-11-12T08:05:07.834Z,48.68
2018-11-12T08:07:35.403Z,47.10
2018-11-12T08:10:03.412Z,41.49
2018-11-12T08:12:30.990Z,38.56
2018-11-12T08:14:58.483Z,35.22
2018-11-12T08:17:26.286Z,31.65
2018-11-12T08:19:53.859Z,29.45
2018-11-12T08:22:21.590Z,27.96
2018-11-12T08:24:49.330Z,26.84
2018-11-12T08:27:16.790Z,30.35
2018-11-12T08:29:44.403Z,31.50
2018-11-12T08:32:11.863Z,29.14
2018-11-12T08:34:39.364Z,27.59
2018-11-12T08:37:09.459Z,25.67
2018-11-12T08:39:37.198Z,24.04
2018-11-12T08:42:04.699Z,23.31
2018-11-12T08:44:32.412Z,23.61
2018-11-12T08:47:00.200Z,22.87
2018-11-12T08:49:27.790Z,26.43
2018-11-12T08:51:55.331Z,30.17
2018-11-12T08:54:22.864Z,33.52
2018-11-12T08:56:50.402Z,34.50
2018-11-12T08:59:18.036Z,37.88
2018-11-12T09:01:45.429Z,42.09
2018-11-12T09:04:13.198Z,43.63
2018-11-12T09:06:40.598Z,42.59
2018-11-12T09:09:09.415Z,41.06
2018-11-12T09:11:36.952Z,42.85
2018-11-12T09:14:04.891Z,45.88
2018-11-12T09:16:32.423Z,46.24
2018-11-12T09:18:59.904Z,44.33
2018-11-12T09:21:28.417Z,41.96
2018-11-12T09:23:55.976Z,41.05
2018-11-12T09:26:23.594Z,36.92
2018-11-12T09:28:51.112Z,35.72
2018-11-12T09:31:20.058Z,37.68
2018-11-12T09:33:46.367Z,40.53
2018-11-12T09:36:13.821Z,43.86
2018-11-12T09:38:41.417Z,47.20
2018-11-12T09:41:08.865Z,48.57
2018-11-12T09:43:36.358Z,51.30
2018-11-12T09:46:04.126Z,51.99
2018-11-12T09:48:31.566Z,53.23
2018-11-12T09:50:59.042Z,53.07
2018-11-12T09:53:26.527Z,49.69
2018-11-12T09:55:54.104Z,45.57
2018-11-12T09:58:21.631Z,44.94
2018-11-12T10:00:49.476Z,42.98
2018-11-12T10:03:23.714Z,42.58
2018-11-12T10:05:51.291Z,41.08
2018-11-12T10:08:19.512Z,37.88
2018-11-12T10:10:51.267Z,35.48
2018-11-12T10:13:21.410Z,37.04
2018-11-12T10:15:49.464Z,40.56
2018-11-12T10:20:41.058Z,44.59
2018-11-12T10:23:08.650Z,45.87
2018-11-12T10:25:36.139Z,44.87
2018-11-12T10:28:03.670Z,43.39
2018-11-12T10:30:31.231Z,40.18
2018-11-12T10:32:58.818Z,37.06
2018-11-12T10:35:26.310Z,36.49
2018-11-12T10:37:53.830Z,35.46
2018-11-12T10:40:23.520Z,34.55
2018-11-12T10:42:51.052Z,32.77
2018-11-12T10:45:18.705Z,32.30
2018-11-12T10:47:47.344Z,32.10
2018-11-12T10:50:15.062Z,32.26
2018-11-12T10:52:42.579Z,32.72
2018-11-12T10:55:11.321Z,31.58
2018-11-12T10:57:38.743Z,28.85
2018-11-12T11:00:15.055Z,27.50
2018-11-12T11:02:48.259Z,28.90
2018-11-12T11:05:15.814Z,31.64
2018-11-12T11:07:43.304Z,33.65
2018-11-12T11:10:10.909Z,35.57
2018-11-12T11:12:38.478Z,37.02
2018-11-12T11:15:06.178Z,38.37
2018-11-12T11:17:33.682Z,39.72
2018-11-12T11:20:01.330Z,41.43
2018-11-12T11:22:28.938Z,42.21
2018-11-12T11:24:56.470Z,43.07
2018-11-12T11:27:24.243Z,44.21
2018-11-12T11:29:52.412Z,44.50
2018-11-12T11:32:19.984Z,45.07
2018-11-12T11:34:47.592Z,45.99
2018-11-12T11:37:15.146Z,46.14
2018-11-12T11:39:42.740Z,45.66
2018-11-12T11:42:10.318Z,46.13
2018-11-12T11:44:37.921Z,46.56
2018-11-12T11:47:05.542Z,47.21
2018-11-12T11:49:33.167Z,47.64
2018-11-12T11:52:01.304Z,47.29
2018-11-12T11:54:29.561Z,46.98
2018-11-12T11:56:57.173Z,48.18
2018-11-12T11:59:24.924Z,48.56
2018-11-12T12:01:52.538Z,47.95
2018-11-12T12:04:20.014Z,47.94
2018-11-12T12:06:47.503Z,47.65
2018-11-12T12:09:15.047Z,47.77
2018-11-12T12:11:42.604Z,47.63
2018-11-12T12:14:10.107Z,47.80
2018-11-12T12:16:37.621Z,49.27
2018-11-12T12:19:05.451Z,49.00
2018-11-12T12:21:32.956Z,49.00
2018-11-12T12:24:00.451Z,49.58
2018-11-12T12:26:27.974Z,49.18
2018-11-12T12:28:55.441Z,49.17
2018-11-12T12:31:22.919Z,48.65
2018-11-12T12:33:50.498Z,48.82
2018-11-12T12:36:18.114Z,48.95
2018-11-12T12:38:45.602Z,49.07
2018-11-12T12:41:13.095Z,48.52
2018-11-12T12:43:40.633Z,48.86
2018-11-12T12:46:08.287Z,49.31
2018-11-12T12:48:35.823Z,49.02
2018-11-12T12:51:03.682Z,49.36
2018-11-12T12:53:31.171Z,50.23
2018-11-12T12:55:58.715Z,51.25
2018-11-12T12:58:26.198Z,52.15
2018-11-12T13:00:54.985Z,52.79
2018-11-12T13:03:22.501Z,52.54
2018-11-12T13:05:50.099Z,53.37
2018-11-12T13:08:17.698Z,53.36
2018-11-12T13:10:45.191Z,53.77
2018-11-12T13:13:12.720Z,53.99
2018-11-12T13:15:40.218Z,53.71
2018-11-12T13:18:07.753Z,53.64
2018-11-12T13:20:35.281Z,53.70
2018-11-12T13:23:02.911Z,52.79
2018-11-12T13:25:30.407Z,52.82
2018-11-12T13:27:57.898Z,53.19
2018-11-12T13:30:25.415Z,52.65
2018-11-12T13:32:53.129Z,52.80
2018-11-12T13:35:22.195Z,52.96
2018-11-12T13:37:49.703Z,52.77
2018-11-12T13:40:19.539Z,53.56
2018-11-12T13:42:49.583Z,52.87
2018-11-12T13:45:17.083Z,53.08
2018-11-12T13:47:45.027Z,54.21
2018-11-12T13:50:15.762Z,53.48
2018-11-12T13:52:43.529Z,53.72
2018-11-12T13:55:12.298Z,53.23
2018-11-12T13:57:39.914Z,53.47
2018-11-12T14:00:10.633Z,54.53
2018-11-12T14:02:38.149Z,55.48
2018-11-12T14:05:06.616Z,56.14
2018-11-12T14:07:34.215Z,56.16
2018-11-12T14:10:01.950Z,57.17
2018-11-12T14:12:29.479Z,57.51
2018-11-12T14:14:56.978Z,58.77
2018-11-12T14:17:24.500Z,59.12
2018-11-12T14:19:52.001Z,60.20
2018-11-12T14:22:19.666Z,60.42
2018-11-12T14:24:47.179Z,60.81
2018-11-12T14:27:14.878Z,60.63
2018-11-12T14:29:42.379Z,60.37
2018-11-12T14:32:09.891Z,60.56
2018-11-12T14:34:37.838Z,60.36
2018-11-12T14:37:05.371Z,60.21
2018-11-12T14:39:32.893Z,59.34
2018-11-12T14:42:01.623Z,59.49
2018-11-12T14:44:29.195Z,59.94
2018-11-12T14:46:56.862Z,60.20
2018-11-12T14:49:24.404Z,60.81
2018-11-12T14:51:52.051Z,60.93
2018-11-12T14:54:19.674Z,60.66
2018-11-12T14:56:47.305Z,60.62
2018-11-12T14:59:14.850Z,60.73
2018-11-12T15:01:42.515Z,61.15
2018-11-12T15:04:10.088Z,60.77
2018-11-12T15:06:37.737Z,60.34
2018-11-12T15:09:08.301Z,61.10
2018-11-12T15:11:35.927Z,61.89
2018-11-12T15:14:03.490Z,62.31
2018-11-12T15:16:31.119Z,63.01
2018-11-12T15:18:58.770Z,63.21
2018-11-12T15:21:26.398Z,63.41
2018-11-12T15:23:54.057Z,63.83
2018-11-12T15:26:21.605Z,63.86
2018-11-12T15:28:49.214Z,63.67
2018-11-12T15:31:16.729Z,63.52
2018-11-12T15:33:44.939Z,63.62
2018-11-12T15:36:12.698Z,63.38
2018-11-12T15:38:40.204Z,63.31
2018-11-12T15:41:07.956Z,63.75
2018-11-12T15:43:35.570Z,63.48
2018-11-12T15:46:03.204Z,63.53
2018-11-12T15:48:30.824Z,63.51
2018-11-12T15:50:58.384Z,63.40
2018-11-12T15:53:25.826Z,63.04
2018-11-12T15:55:53.358Z,63.27
2018-11-12T15:58:20.914Z,63.62
2018-11-12T16:00:48.376Z,63.26
2018-11-12T16:03:15.890Z,63.29
2018-11-12T16:05:43.550Z,63.70
2018-11-12T16:08:11.124Z,63.44
2018-11-12T16:10:38.642Z,62.62
2018-11-12T16:13:06.210Z,62.89
2018-11-12T16:15:33.761Z,62.73
2018-11-12T16:18:01.418Z,63.38
2018-11-12T16:20:29.511Z,62.87
2018-11-12T16:22:59.118Z,62.33
2018-11-12T16:25:27.280Z,62.39
2018-11-12T16:27:54.776Z,62.74
2018-11-12T16:30:23.006Z,62.01
2018-11-12T16:32:50.607Z,62.92
2018-11-12T16:35:19.514Z,62.84
2018-11-12T16:37:47.887Z,62.73
2018-11-12T16:40:15.442Z,61.60
2018-11-12T16:42:44.399Z,62.55
2018-11-12T16:45:12.858Z,62.84
2018-11-12T16:47:40.427Z,62.32
2018-11-12T16:50:08.633Z,62.67
2018-11-12T16:52:36.345Z,62.59
2018-11-12T16:55:04.883Z,62.46
2018-11-12T16:57:32.516Z,63.08
2018-11-12T17:00:00.347Z,62.62
2018-11-12T17:02:27.938Z,61.17
2018-11-12T17:04:55.458Z,61.91
2018-11-12T17:07:23.022Z,62.08
2018-11-12T17:09:50.705Z,62.50
2018-11-12T17:12:18.791Z,63.51
2018-11-12T17:14:46.286Z,62.73
2018-11-12T17:17:13.895Z,62.03
2018-11-12T17:19:41.515Z,61.48
2018-11-12T17:22:09.099Z,63.19
2018-11-12T17:24:36.752Z,64.11
2018-11-12T17:27:04.473Z,63.99
2018-11-12T17:29:31.999Z,62.90
2018-11-12T17:32:01.304Z,63.84
2018-11-12T17:34:28.969Z,62.87
2018-11-12T17:36:56.523Z,63.73
2018-11-12T17:39:24.057Z,62.72
2018-11-12T17:41:51.577Z,63.35
2018-11-12T17:44:19.159Z,63.25
2018-11-12T17:46:46.662Z,63.50
2018-11-12T17:49:14.643Z,64.06
2018-11-12T17:51:42.364Z,63.23
2018-11-12T17:54:09.981Z,63.28
2018-11-12T17:56:37.559Z,62.72
2018-11-12T17:59:05.168Z,62.65
2018-11-12T18:01:32.781Z,63.31
2018-11-12T18:04:00.251Z,64.24
2018-11-12T18:06:28.710Z,63.69
2018-11-12T18:08:56.365Z,64.49
2018-11-12T18:11:24.043Z,64.52
2018-11-12T18:13:51.766Z,65.11
2018-11-12T18:16:19.526Z,65.30
2018-11-12T18:18:48.030Z,64.99
2018-11-12T18:21:15.568Z,65.10
2018-11-12T18:23:43.273Z,65.98
2018-11-12T18:26:10.838Z,65.14
2018-11-12T18:28:38.411Z,65.25
2018-11-12T18:31:06.227Z,65.70
2018-11-12T18:33:34.266Z,66.23
2018-11-12T18:36:02.031Z,65.30
2018-11-12T18:38:29.656Z,65.39
2018-11-12T18:40:58.179Z,64.79
2018-11-12T18:43:25.710Z,65.42
2018-11-12T18:45:53.264Z,65.07
2018-11-12T18:48:20.809Z,63.97
2018-11-12T18:50:48.319Z,64.71
2018-11-12T18:53:15.891Z,65.86
2018-11-12T18:55:43.454Z,66.63
2018-11-12T18:58:11.118Z,66.00
2018-11-12T19:00:38.684Z,65.97
2018-11-12T19:03:06.279Z,65.06
2018-11-12T19:05:33.797Z,64.64
2018-11-12T19:08:01.955Z,64.63
2018-11-12T19:10:31.151Z,64.81
2018-11-12T19:12:58.890Z,65.25
2018-11-12T19:15:29.311Z,65.32
2018-11-12T19:17:57.731Z,65.45
2018-11-12T19:20:25.300Z,65.56
2018-11-12T19:22:53.413Z,64.99
2018-11-12T19:25:21.162Z,65.43
2018-11-12T19:27:48.855Z,65.20
2018-11-12T19:30:18.149Z,65.14
2018-11-12T19:32:45.740Z,65.44
2018-11-12T19:35:14.202Z,65.30
2018-11-12T19:37:41.886Z,64.77
2018-11-12T19:40:11.909Z,65.12
2018-11-12T19:42:39.551Z,64.70
2018-11-12T19:45:07.764Z,65.10
2018-11-12T19:47:35.404Z,65.68
2018-11-12T19:50:03.284Z,65.79
2018-11-12T19:52:30.970Z,66.57
2018-11-12T19:54:58.745Z,66.77
2018-11-12T19:57:26.504Z,66.79
2018-11-12T19:59:54.040Z,66.30
2018-11-12T20:02:21.571Z,66.74
2018-11-12T20:04:49.190Z,67.53
2018-11-12T20:07:16.875Z,66.93
2018-11-12T20:09:44.551Z,67.53
2018-11-12T20:12:12.141Z,68.72
2018-11-12T20:14:39.976Z,69.07
2018-11-12T20:17:07.707Z,69.51
2018-11-12T20:19:35.354Z,69.29
2018-11-12T20:22:03.930Z,69.40
2018-11-12T20:24:32.728Z,69.67
2018-11-12T20:27:00.254Z,69.64
2018-11-12T20:29:28.463Z,70.12
2018-11-12T20:31:56.135Z,70.50
2018-11-12T20:34:23.662Z,70.39
2018-11-12T20:36:51.321Z,70.62
2018-11-12T20:39:18.909Z,70.54
2018-11-12T20:41:46.786Z,71.29
2018-11-12T20:44:14.775Z,71.28
2018-11-12T20:46:42.427Z,71.10
2018-11-12T20:49:09.975Z,71.23
2018-11-12T20:51:38.892Z,71.08
2018-11-12T20:54:07.456Z,71.31
2018-11-12T20:56:35.139Z,71.77
2018-11-12T20:59:02.839Z,71.78
2018-11-12T21:01:31.175Z,71.34
2018-11-12T21:03:58.823Z,71.72
2018-11-12T21:06:26.385Z,71.50
2018-11-12T21:08:53.955Z,71.33
2018-11-12T21:11:21.488Z,70.97
2018-11-12T21:13:49.106Z,71.48
2018-11-12T21:16:16.759Z,71.75
2018-11-12T21:18:44.319Z,71.39
2018-11-12T21:21:12.647Z,71.58
2018-11-12T21:23:40.406Z,71.47
2018-11-12T21:26:07.975Z,71.55
2018-11-12T21:28:35.626Z,71.94
2018-11-12T21:31:03.160Z,71.61
2018-11-12T21:33:30.858Z,71.42
2018-11-12T21:35:58.431Z,71.58
2018-11-12T21:38:26.026Z,71.31
2018-11-12T21:40:53.554Z,71.37
2018-11-12T21:43:21.236Z,71.85
2018-11-12T21:45:48.917Z,70.97
2018-11-12T21:48:16.470Z,71.10
2018-11-12T21:50:44.133Z,71.29
2018-11-12T21:53:11.973Z,71.00
2018-11-12T21:55:39.561Z,71.33
2018-11-12T21:58:07.202Z,71.76
2018-11-12T22:00:34.710Z,71.47
2018-11-12T22:03:03.790Z,71.80
2018-11-12T22:05:32.272Z,71.37
2018-11-12T22:08:00.145Z,70.55
2018-11-12T22:10:27.783Z,70.46
2018-11-12T22:12:55.701Z,70.32
2018-11-12T22:15:23.266Z,71.39
2018-11-12T22:17:50.946Z,70.99
2018-11-12T22:20:20.138Z,71.54
2018-11-12T22:22:47.640Z,71.54
2018-11-12T22:25:19.278Z,71.64
2018-11-12T22:27:47.553Z,71.87
2018-11-12T22:30:16.750Z,71.93
2018-11-12T22:32:45.940Z,71.97
2018-11-12T22:35:13.439Z,70.73
2018-11-12T22:37:41.505Z,70.97
2018-11-12T22:40:10.275Z,70.66
2018-11-12T22:42:38.034Z,71.27
2018-11-12T22:45:06.576Z,70.78
2018-11-12T22:47:34.262Z,71.66
2018-11-12T22:50:01.932Z,71.84
2018-11-12T22:52:29.566Z,72.43
2018-11-12T22:54:57.285Z,72.80
2018-11-12T22:57:24.814Z,72.90
2018-11-12T22:59:52.391Z,72.63
2018-11-12T23:02:19.916Z,73.40
2018-11-12T23:04:47.543Z,72.52
2018-11-12T23:07:15.185Z,72.54
2018-11-12T23:09:42.928Z,73.41
2018-11-12T23:12:10.443Z,74.10
2018-11-12T23:14:38.017Z,74.42
2018-11-12T23:17:05.551Z,73.89
2018-11-12T23:19:33.421Z,73.65
2018-11-12T23:22:01.023Z,73.54
2018-11-12T23:24:28.526Z,73.36
2018-11-12T23:26:56.406Z,72.99
2018-11-12T23:29:23.919Z,72.91
2018-11-12T23:31:51.430Z,72.01
2018-11-12T23:34:19.072Z,71.96
2018-11-12T23:36:46.579Z,71.70
2018-11-12T23:39:14.111Z,71.20
2018-11-12T23:41:41.593Z,71.20
2018-11-12T23:44:09.226Z,70.67
2018-11-12T23:46:36.866Z,70.67
2018-11-12T23:49:05.340Z,70.53
2018-11-12T23:51:32.866Z,70.00
2018-11-12T23:54:00.693Z,71.00
2018-11-12T23:56:28.246Z,71.98
2018-11-12T23:58:55.858Z,72.84
